createdAt,value
2017-12-27T00:00:03.262Z,98542.73
2017-12-27T00:02:36.223Z,98543.99
2017-12-27T00:05:09.309Z,98545.25
2017-12-27T00:07:42.253Z,98539.34
2017-12-27T00:10:15.259Z,98546.92
2017-12-27T00:12:48.349Z,98546.48
2017-12-27T00:15:21.266Z,98546.91
2017-12-27T00:17:54.219Z,98539.76
2017-12-27T00:23:34.538Z,98546.50
2017-12-27T00:26:07.515Z,98537.67
2017-12-27T00:28:40.540Z,98538.95
2017-12-27T00:31:09.810Z,98550.28
2017-12-27T00:33:37.289Z,98554.47
2017-12-27T00:36:04.775Z,98553.61
2017-12-27T00:38:33.125Z,98548.99
2017-12-27T00:41:00.676Z,98546.45
2017-12-27T00:43:28.149Z,98545.59
2017-12-27T00:45:55.671Z,98549.40
2017-12-27T00:48:23.159Z,98546.00
2017-12-27T00:50:50.626Z,98540.11
2017-12-27T00:53:18.123Z,98535.05
2017-12-27T00:55:45.603Z,98538.00
2017-12-27T00:58:13.073Z,98540.09
2017-12-27T01:00:40.620Z,98541.78
2017-12-27T01:03:08.094Z,98532.95
2017-12-27T01:05:35.599Z,98533.36
2017-12-27T01:08:03.156Z,98532.50
2017-12-27T01:10:30.642Z,98529.95
2017-12-27T01:12:58.161Z,98529.13
2017-12-27T01:15:25.633Z,98521.97
2017-12-27T01:17:53.141Z,98518.17
2017-12-27T01:20:20.607Z,98512.72
2017-12-27T01:22:48.106Z,98507.28
2017-12-27T01:25:15.611Z,98503.50
2017-12-27T01:27:43.113Z,98486.66
2017-12-27T01:30:10.604Z,98488.81
2017-12-27T01:32:38.100Z,98480.41
2017-12-27T01:35:05.592Z,98471.98
2017-12-27T01:37:33.116Z,98474.09
2017-12-27T01:40:00.616Z,98465.69
2017-12-27T01:42:28.452Z,98455.98
2017-12-27T01:44:55.945Z,98455.58
2017-12-27T01:47:23.413Z,98445.47
2017-12-27T01:49:50.916Z,98440.88
2017-12-27T01:52:19.397Z,98423.65
2017-12-27T01:54:46.895Z,98425.74
2017-12-27T01:57:14.431Z,98415.25
2017-12-27T01:59:42.002Z,98410.22
2017-12-27T02:02:09.478Z,98406.45
2017-12-27T02:04:39.985Z,98399.69
2017-12-27T02:07:07.488Z,98392.56
2017-12-27T02:09:34.947Z,98387.95
2017-12-27T02:12:02.489Z,98367.34
2017-12-27T02:14:29.987Z,98353.06
2017-12-27T02:16:57.501Z,98346.35
2017-12-27T02:19:24.983Z,98341.30
2017-12-27T02:21:52.557Z,98345.08
2017-12-27T02:24:20.028Z,98337.53
2017-12-27T02:26:47.516Z,98324.50
2017-12-27T02:29:15.042Z,98327.02
2017-12-27T02:31:42.523Z,98324.52
2017-12-27T02:34:09.992Z,98320.30
2017-12-27T02:36:37.503Z,98313.19
2017-12-27T02:39:05.031Z,98313.18
2017-12-27T02:41:32.505Z,98310.66
2017-12-27T02:44:00.003Z,98300.99
2017-12-27T02:46:27.484Z,98296.78
2017-12-27T02:48:54.996Z,98284.59
2017-12-27T02:51:22.496Z,98279.16
2017-12-27T02:53:50.015Z,98267.38
2017-12-27T02:56:17.643Z,98266.11
2017-12-27T02:58:45.183Z,98267.80
2017-12-27T03:01:12.664Z,98264.45
2017-12-27T03:03:40.107Z,98263.59
2017-12-27T03:06:07.629Z,98260.23
2017-12-27T03:08:35.612Z,98261.08
2017-12-27T03:11:03.184Z,98245.53
2017-12-27T03:13:30.663Z,98234.16
2017-12-27T03:15:58.154Z,98223.20
2017-12-27T03:18:25.630Z,98213.95
2017-12-27T03:20:53.142Z,98215.20
2017-12-27T03:23:20.613Z,98221.09
2017-12-27T03:25:48.135Z,98201.72
2017-12-27T03:28:15.779Z,98201.34
2017-12-27T03:30:43.255Z,98201.73
2017-12-27T03:33:10.725Z,98193.30
2017-12-27T03:35:38.208Z,98189.92
2017-12-27T03:38:05.690Z,98185.30
2017-12-27T03:40:33.304Z,98161.28
2017-12-27T03:43:00.809Z,98157.94
2017-12-27T03:45:28.286Z,98146.99
2017-12-27T03:47:55.784Z,98150.81
2017-12-27T03:50:23.288Z,98154.16
2017-12-27T03:52:50.859Z,98143.22
2017-12-27T03:55:19.099Z,98132.23
2017-12-27T03:57:46.600Z,98123.83
2017-12-27T04:00:14.115Z,98110.03
2017-12-27T04:02:41.629Z,98110.48
2017-12-27T04:05:09.128Z,98114.71
2017-12-27T04:07:36.587Z,98107.53
2017-12-27T04:10:04.081Z,98103.75
2017-12-27T04:12:31.713Z,98100.81
2017-12-27T04:14:59.188Z,98097.84
2017-12-27T04:17:26.651Z,98097.42
2017-12-27T04:19:54.137Z,98093.64
2017-12-27T04:22:21.614Z,98097.80
2017-12-27T04:24:49.216Z,98096.95
2017-12-27T04:27:16.811Z,98098.12
2017-12-27T04:29:44.275Z,98098.57
2017-12-27T04:32:11.742Z,98085.19
2017-12-27T04:34:39.220Z,98070.51
2017-12-27T04:37:06.685Z,98073.02
2017-12-27T04:39:34.142Z,98059.54
2017-12-27T04:42:01.641Z,98051.11
2017-12-27T04:44:30.228Z,98043.65
2017-12-27T04:46:57.727Z,98037.38
2017-12-27T04:49:25.227Z,98040.67
2017-12-27T04:51:52.732Z,98029.77
2017-12-27T04:54:20.212Z,98021.83
2017-12-27T04:56:47.709Z,98013.80
2017-12-27T04:59:15.164Z,98019.24
2017-12-27T05:01:42.628Z,98016.32
2017-12-27T05:04:10.152Z,98011.25
2017-12-27T05:06:37.616Z,98014.58
2017-12-27T05:09:05.092Z,98007.85
2017-12-27T05:11:32.621Z,98002.45
2017-12-27T05:14:00.116Z,98002.84
2017-12-27T05:16:27.620Z,98000.30
2017-12-27T05:18:56.413Z,97988.17
2017-12-27T05:21:23.943Z,97989.02
2017-12-27T05:23:51.446Z,97975.56
2017-12-27T05:26:18.943Z,97970.11
2017-12-27T05:28:46.411Z,97976.08
2017-12-27T05:31:13.877Z,97972.30
2017-12-27T05:33:41.387Z,97960.99
2017-12-27T05:45:49.968Z,97939.95
2017-12-27T05:48:17.423Z,97934.12
2017-12-27T05:50:44.909Z,97933.67
2017-12-27T05:53:12.440Z,97928.21
2017-12-27T05:55:39.894Z,97933.20
2017-12-27T05:58:07.353Z,97933.17
2017-12-27T06:00:34.858Z,97931.92
2017-12-27T06:03:02.325Z,97926.86
2017-12-27T06:05:29.812Z,97921.42
2017-12-27T06:07:57.385Z,97925.23
2017-12-27T06:10:24.889Z,97924.78
2017-12-27T06:12:52.909Z,97917.66
2017-12-27T06:15:20.390Z,97908.45
2017-12-27T06:17:47.865Z,97907.22
2017-12-27T06:20:15.832Z,97903.81
2017-12-27T06:22:43.343Z,97902.53
2017-12-27T06:25:10.823Z,97889.94
2017-12-27T06:27:38.329Z,97869.82
2017-12-27T06:30:05.825Z,97866.87
2017-12-27T06:32:33.281Z,97865.13
2017-12-27T06:35:00.740Z,97860.50
2017-12-27T06:37:28.275Z,97860.50
2017-12-27T06:39:55.728Z,97857.11
2017-12-27T06:42:23.184Z,97845.35
2017-12-27T06:44:50.657Z,97847.00
2017-12-27T06:47:18.118Z,97854.58
2017-12-27T06:49:45.583Z,97849.47
2017-12-27T06:52:13.050Z,97835.19
2017-12-27T06:54:40.528Z,97832.23
2017-12-27T06:57:07.983Z,97820.00
2017-12-27T06:59:35.484Z,97820.48
2017-12-27T07:02:02.982Z,97812.06
2017-12-27T07:04:30.435Z,97813.33
2017-12-27T07:06:57.915Z,97803.55
2017-12-27T07:09:25.473Z,97798.92
2017-12-27T07:11:53.023Z,97800.63
2017-12-27T07:14:20.591Z,97792.16
2017-12-27T07:16:48.131Z,97784.95
2017-12-27T07:19:15.603Z,97790.45
2017-12-27T07:21:43.059Z,97787.50
2017-12-27T07:24:10.524Z,97778.26
2017-12-27T07:26:37.987Z,97775.67
2017-12-27T07:29:05.442Z,97768.39
2017-12-27T07:31:33.483Z,97758.23
2017-12-27T07:34:00.939Z,97763.52
2017-12-27T07:36:28.702Z,97769.09
2017-12-27T07:38:56.239Z,97760.20
2017-12-27T07:41:23.734Z,97763.56
2017-12-27T07:43:51.203Z,97763.52
2017-12-27T07:46:18.674Z,97753.73
2017-12-27T07:48:46.156Z,97742.60
2017-12-27T07:51:13.619Z,97735.91
2017-12-27T07:53:41.106Z,97738.47
2017-12-27T07:56:08.564Z,97736.45
2017-12-27T07:58:36.054Z,97734.45
2017-12-27T08:01:03.591Z,97734.18
2017-12-27T08:03:31.090Z,97720.77
2017-12-27T08:05:58.552Z,97715.22
2017-12-27T08:08:26.047Z,97721.56
2017-12-27T08:10:53.501Z,97711.89
2017-12-27T08:13:20.974Z,97718.12
2017-12-27T08:15:48.448Z,97707.99
2017-12-27T08:18:16.486Z,97707.37
2017-12-27T08:20:43.945Z,97706.19
2017-12-27T08:23:11.424Z,97698.50
2017-12-27T08:25:38.944Z,97698.45
2017-12-27T08:28:06.462Z,97693.73
2017-12-27T08:30:34.640Z,97694.92
2017-12-27T08:33:02.131Z,97695.55
2017-12-27T08:35:30.240Z,97683.25
2017-12-27T08:37:57.768Z,97688.64
2017-12-27T08:40:25.211Z,97685.22
2017-12-27T08:42:52.666Z,97673.80
2017-12-27T08:45:20.211Z,97678.61
2017-12-27T08:47:47.661Z,97674.22
2017-12-27T08:50:15.578Z,97668.45
2017-12-27T08:52:43.065Z,97664.36
2017-12-27T08:55:10.520Z,97657.30
2017-12-27T08:57:37.960Z,97668.42
2017-12-27T09:00:05.430Z,97667.27
2017-12-27T09:02:32.952Z,97656.66
2017-12-27T09:05:00.427Z,97651.70
2017-12-27T09:07:27.887Z,97648.14
2017-12-27T09:09:55.363Z,97670.27
2017-12-27T09:12:22.850Z,97659.89
2017-12-27T09:14:50.424Z,97657.73
2017-12-27T09:17:17.870Z,97657.44
2017-12-27T09:19:45.331Z,97648.80
2017-12-27T09:22:12.804Z,97643.24
2017-12-27T09:24:40.263Z,97639.03
2017-12-27T09:27:07.837Z,97622.17
2017-12-27T09:29:35.328Z,97630.29
2017-12-27T09:32:02.788Z,97621.12
2017-12-27T09:34:30.282Z,97618.25
2017-12-27T09:36:57.764Z,97606.00
2017-12-27T09:39:25.246Z,97620.34
2017-12-27T09:41:52.707Z,97613.76
2017-12-27T09:44:20.175Z,97617.80
2017-12-27T09:46:47.622Z,97604.56
2017-12-27T09:49:15.094Z,97595.00
2017-12-27T09:51:42.583Z,97581.39
2017-12-27T09:54:10.143Z,97576.50
2017-12-27T09:56:37.750Z,97574.61
2017-12-27T09:59:05.241Z,97573.12
2017-12-27T10:01:32.709Z,97577.98
2017-12-27T10:04:00.281Z,97573.16
2017-12-27T10:06:27.939Z,97580.77
2017-12-27T10:08:55.491Z,97566.25
2017-12-27T10:11:22.939Z,97552.98
2017-12-27T10:13:50.445Z,97559.69
2017-12-27T10:16:17.906Z,97554.91
2017-12-27T10:18:45.372Z,97563.56
2017-12-27T10:21:13.052Z,97552.36
2017-12-27T10:23:40.508Z,97550.04
2017-12-27T10:26:07.970Z,97542.50
2017-12-27T10:28:36.842Z,97529.64
2017-12-27T10:31:04.299Z,97531.19
2017-12-27T10:33:31.768Z,97521.18
2017-12-27T10:35:59.231Z,97513.39
2017-12-27T10:38:26.743Z,97508.92
2017-12-27T10:40:54.191Z,97500.22
2017-12-27T10:43:21.658Z,97494.08
2017-12-27T10:45:49.151Z,97489.81
2017-12-27T10:48:16.616Z,97491.45
2017-12-27T10:50:44.088Z,97474.66
2017-12-27T10:53:11.785Z,97470.47
2017-12-27T10:55:39.252Z,97461.38
2017-12-27T10:58:06.748Z,97462.55
2017-12-27T11:00:34.226Z,97453.34
2017-12-27T11:03:01.701Z,97441.06
2017-12-27T11:05:29.187Z,97436.69
2017-12-27T11:07:56.647Z,97418.55
2017-12-27T11:10:24.110Z,97419.51
2017-12-27T11:12:51.631Z,97410.67
2017-12-27T11:15:19.091Z,97415.19
2017-12-27T11:17:46.591Z,97401.87
2017-12-27T11:20:14.192Z,97401.84
2017-12-27T11:22:41.711Z,97388.45
2017-12-27T11:25:09.175Z,97371.63
2017-12-27T11:27:36.723Z,97379.16
2017-12-27T11:30:04.219Z,97367.59
2017-12-27T11:32:31.990Z,97370.47
2017-12-27T11:34:59.515Z,97357.33
2017-12-27T11:37:26.987Z,97355.20
2017-12-27T11:39:54.652Z,97352.03
2017-12-27T11:42:22.135Z,97337.23
2017-12-27T11:44:49.639Z,97328.78
2017-12-27T11:47:17.118Z,97308.77
2017-12-27T11:49:44.600Z,97309.95
2017-12-27T11:52:12.084Z,97307.07
2017-12-27T11:54:39.570Z,97291.20
2017-12-27T11:57:07.071Z,97296.19
2017-12-27T11:59:34.536Z,97290.42
2017-12-27T12:02:02.027Z,97289.88
2017-12-27T12:04:29.524Z,97287.08
2017-12-27T12:06:56.999Z,97284.49
2017-12-27T12:09:24.505Z,97279.89
2017-12-27T12:11:51.980Z,97283.63
2017-12-27T12:14:19.442Z,97263.13
2017-12-27T12:16:46.957Z,97248.20
2017-12-27T12:19:14.449Z,97244.45
2017-12-27T12:21:41.927Z,97240.65
2017-12-27T12:24:09.950Z,97239.96
2017-12-27T12:26:37.480Z,97236.44
2017-12-27T12:29:04.959Z,97245.12
2017-12-27T12:31:32.441Z,97232.73
2017-12-27T12:33:59.936Z,97234.16
2017-12-27T12:36:27.633Z,97235.70
2017-12-27T12:38:55.336Z,97235.25
2017-12-27T12:41:22.846Z,97216.67
2017-12-27T12:43:50.324Z,97221.52
2017-12-27T12:46:18.115Z,97214.31
2017-12-27T12:48:45.617Z,97211.99
2017-12-27T12:51:13.093Z,97209.64
2017-12-27T12:53:40.595Z,97208.52
2017-12-27T12:56:08.187Z,97194.01
2017-12-27T12:58:36.304Z,97184.31
2017-12-27T13:01:03.808Z,97194.41
2017-12-27T13:03:31.282Z,97196.73
2017-12-27T13:05:58.758Z,97189.17
2017-12-27T13:08:26.257Z,97185.80
2017-12-27T13:10:54.195Z,97164.97
2017-12-27T13:13:22.520Z,97161.80
2017-12-27T13:15:50.088Z,97164.78
2017-12-27T13:18:17.550Z,97159.47
2017-12-27T13:20:45.044Z,97164.85
2017-12-27T13:23:12.508Z,97158.09
2017-12-27T13:25:39.970Z,97167.23
2017-12-27T13:28:07.450Z,97172.52
2017-12-27T13:30:34.937Z,97155.36
2017-12-27T13:33:02.631Z,97157.47
2017-12-27T13:35:30.099Z,97153.34
2017-12-27T13:37:57.633Z,97147.65
2017-12-27T13:40:25.145Z,97145.12
2017-12-27T13:42:52.891Z,97139.04
2017-12-27T13:45:20.482Z,97144.73
2017-12-27T13:47:47.956Z,97129.25
2017-12-27T13:50:15.782Z,97135.03
2017-12-27T13:52:43.313Z,97132.92
2017-12-27T13:55:10.913Z,97124.73
2017-12-27T13:57:38.381Z,97124.86
2017-12-27T14:00:06.595Z,97117.47
2017-12-27T14:02:34.246Z,97118.75
2017-12-27T14:05:01.748Z,97115.04
2017-12-27T14:07:29.255Z,97123.48
2017-12-27T14:09:56.719Z,97118.77
2017-12-27T14:12:25.399Z,97118.59
2017-12-27T14:14:52.963Z,97108.09
2017-12-27T14:17:20.519Z,97098.39
2017-12-27T14:19:48.031Z,97097.66
2017-12-27T14:22:15.660Z,97098.81
2017-12-27T14:24:43.269Z,97101.33
2017-12-27T14:27:10.730Z,97097.42
2017-12-27T14:29:38.215Z,97092.28
2017-12-27T14:32:05.688Z,97087.77
2017-12-27T14:34:33.160Z,97090.37
2017-12-27T14:37:00.658Z,97088.72
2017-12-27T14:39:28.153Z,97076.47
2017-12-27T14:41:55.624Z,97086.33
2017-12-27T14:44:23.095Z,97082.67
2017-12-27T14:46:50.559Z,97078.94
2017-12-27T14:49:18.042Z,97086.62
2017-12-27T14:51:45.551Z,97082.62
2017-12-27T14:54:13.031Z,97097.89
2017-12-27T14:56:40.647Z,97087.77
2017-12-27T14:59:08.211Z,97085.58
2017-12-27T15:01:35.682Z,97076.69
2017-12-27T15:04:03.148Z,97088.84
2017-12-27T15:06:30.683Z,97083.09
2017-12-27T15:08:58.171Z,97070.39
2017-12-27T15:11:25.672Z,97074.10
2017-12-27T15:13:53.183Z,97068.05
2017-12-27T15:16:20.681Z,97066.75
2017-12-27T15:18:48.648Z,97067.48
2017-12-27T15:21:16.209Z,97066.63
2017-12-27T15:23:43.679Z,97065.45
2017-12-27T15:26:11.163Z,97077.37
2017-12-27T15:28:38.939Z,97070.42
2017-12-27T15:31:06.482Z,97072.33
2017-12-27T15:33:33.960Z,97067.49
2017-12-27T15:36:01.491Z,97066.45
2017-12-27T15:38:28.995Z,97068.41
2017-12-27T15:40:56.464Z,97068.30
2017-12-27T15:43:24.670Z,97069.54
2017-12-27T15:45:52.142Z,97072.68
2017-12-27T15:48:19.618Z,97068.47
2017-12-27T15:50:47.080Z,97061.91
2017-12-27T15:53:14.551Z,97058.95
2017-12-27T15:55:42.039Z,97063.48
2017-12-27T15:58:09.523Z,97056.37
2017-12-27T16:00:37.069Z,97058.92
2017-12-27T16:03:04.583Z,97066.80
2017-12-27T16:05:32.051Z,97066.92
2017-12-27T16:07:59.565Z,97060.23
2017-12-27T16:10:27.035Z,97062.19
2017-12-27T16:12:54.520Z,97068.73
2017-12-27T16:15:22.399Z,97071.52
2017-12-27T16:17:49.958Z,97075.14
2017-12-27T16:20:17.527Z,97079.68
2017-12-27T16:22:45.041Z,97078.14
2017-12-27T16:25:12.552Z,97080.39
2017-12-27T16:27:40.008Z,97078.77
2017-12-27T16:30:07.478Z,97078.38
2017-12-27T16:32:35.111Z,97069.71
2017-12-27T16:35:02.664Z,97072.14
2017-12-27T16:37:30.143Z,97066.22
2017-12-27T16:39:57.623Z,97071.61
2017-12-27T16:42:25.114Z,97068.97
2017-12-27T16:44:52.655Z,97068.82
2017-12-27T16:47:20.140Z,97066.60
2017-12-27T16:49:47.627Z,97061.11
2017-12-27T16:52:15.187Z,97056.98
2017-12-27T16:54:42.811Z,97054.41
2017-12-27T16:57:10.285Z,97048.95
2017-12-27T16:59:37.764Z,97048.36
2017-12-27T17:02:05.235Z,97045.95
2017-12-27T17:04:32.703Z,97030.36
2017-12-27T17:07:00.568Z,97036.70
2017-12-27T17:09:28.037Z,97037.98
2017-12-27T17:11:55.498Z,97040.84
2017-12-27T17:14:22.979Z,97041.35
2017-12-27T17:16:50.448Z,97049.20
2017-12-27T17:19:17.943Z,97053.55
2017-12-27T17:21:45.416Z,97045.67
2017-12-27T17:24:12.912Z,97055.50
2017-12-27T17:26:40.394Z,97050.27
2017-12-27T17:29:07.872Z,97061.91
2017-12-27T17:31:35.370Z,97059.27
2017-12-27T17:34:02.860Z,97045.91
2017-12-27T17:36:30.327Z,97050.27
2017-12-27T17:38:57.802Z,97051.81
2017-12-27T17:41:25.267Z,97046.62
2017-12-27T17:43:52.740Z,97055.62
2017-12-27T17:46:20.228Z,97052.05
2017-12-27T17:48:47.815Z,97050.30
2017-12-27T17:51:15.381Z,97049.67
2017-12-27T17:53:42.890Z,97055.13
2017-12-27T17:56:10.377Z,97057.47
2017-12-27T17:58:37.859Z,97052.67
2017-12-27T18:01:05.341Z,97049.94
2017-12-27T18:03:32.827Z,97054.70
2017-12-27T18:06:00.288Z,97047.23
2017-12-27T18:08:27.763Z,97045.13
2017-12-27T18:10:55.261Z,97037.75
2017-12-27T18:13:22.731Z,97042.38
2017-12-27T18:15:50.188Z,97045.49
2017-12-27T18:18:17.668Z,97043.27
2017-12-27T18:20:45.147Z,97049.24
2017-12-27T18:23:12.623Z,97050.23
2017-12-27T18:25:40.108Z,97042.48
2017-12-27T18:28:07.581Z,97037.28
2017-12-27T18:30:35.087Z,97032.17
2017-12-27T18:33:02.551Z,97024.91
2017-12-27T18:35:30.055Z,97008.86
2017-12-27T18:37:57.557Z,97006.13
2017-12-27T18:40:25.032Z,97015.95
2017-12-27T18:42:52.517Z,97024.16
2017-12-27T18:45:20.004Z,97015.84
2017-12-27T18:47:48.654Z,97015.66
2017-12-27T18:50:16.385Z,97008.16
2017-12-27T18:52:43.886Z,97013.84
2017-12-27T18:55:11.360Z,97006.20
2017-12-27T18:57:38.849Z,97003.79
2017-12-27T19:00:06.310Z,96997.42
2017-12-27T19:02:33.990Z,97000.36
2017-12-27T19:05:01.488Z,96996.67
2017-12-27T19:07:28.975Z,97005.95
2017-12-27T19:09:56.635Z,97001.99
2017-12-27T19:12:24.103Z,96994.55
2017-12-27T19:14:51.578Z,96994.69
2017-12-27T19:17:19.232Z,96975.11
2017-12-27T19:19:46.737Z,96975.37
2017-12-27T19:22:14.321Z,96964.66
2017-12-27T19:24:41.844Z,96969.76
2017-12-27T19:27:09.364Z,96964.97
2017-12-27T19:29:36.908Z,96973.23
2017-12-27T19:32:04.410Z,96969.98
2017-12-27T19:34:31.873Z,96970.69
2017-12-27T19:36:59.374Z,96969.79
2017-12-27T19:39:26.943Z,96968.95
2017-12-27T19:41:54.493Z,96970.08
2017-12-27T19:44:22.052Z,96965.34
2017-12-27T19:46:49.629Z,96974.61
2017-12-27T19:49:17.207Z,96972.15
2017-12-27T19:51:44.846Z,96965.51
2017-12-27T19:54:12.469Z,96967.14
2017-12-27T19:56:40.170Z,96963.66
2017-12-27T19:59:07.880Z,96976.58
2017-12-27T20:01:35.586Z,96968.69
2017-12-27T20:04:03.349Z,96978.64
2017-12-27T20:06:31.225Z,96974.99
2017-12-27T20:08:58.991Z,96965.42
2017-12-27T20:11:26.672Z,96960.91
2017-12-27T20:13:54.460Z,96972.72
2017-12-27T20:16:22.209Z,96958.91
2017-12-27T20:18:50.408Z,96952.55
2017-12-27T20:21:18.264Z,96955.67
2017-12-27T20:23:46.012Z,96950.09
2017-12-27T20:26:13.761Z,96946.71
2017-12-27T20:28:41.527Z,96944.75
2017-12-27T20:31:09.282Z,96933.35
2017-12-27T20:33:37.070Z,96935.94
2017-12-27T20:36:04.892Z,96928.97
2017-12-27T20:38:32.813Z,96937.78
2017-12-27T20:41:00.582Z,96928.80
2017-12-27T20:43:28.391Z,96931.63
2017-12-27T20:45:56.210Z,96933.59
2017-12-27T20:48:24.205Z,96923.78
2017-12-27T20:50:52.044Z,96926.27
2017-12-27T20:53:19.841Z,96919.64
2017-12-27T20:55:47.543Z,96925.06
2017-12-27T20:58:15.856Z,96915.92
2017-12-27T21:00:43.691Z,96911.70
2017-12-27T21:03:11.441Z,96907.14
2017-12-27T21:05:39.204Z,96904.27
2017-12-27T21:08:07.497Z,96905.97
2017-12-27T21:10:35.193Z,96908.48
2017-12-27T21:13:03.025Z,96901.81
2017-12-27T21:15:30.669Z,96899.42
2017-12-27T21:17:58.275Z,96907.72
2017-12-27T21:20:25.927Z,96908.89
2017-12-27T21:22:53.522Z,96905.53
2017-12-27T21:25:21.149Z,96901.50
2017-12-27T21:27:48.714Z,96903.66
2017-12-27T21:30:16.284Z,96900.75
2017-12-27T21:32:43.788Z,96899.64
2017-12-27T21:35:11.325Z,96892.03
2017-12-27T21:37:38.836Z,96903.14
2017-12-27T21:40:06.337Z,96912.63
2017-12-27T21:42:33.903Z,96905.34
2017-12-27T21:45:01.419Z,96914.61
2017-12-27T21:47:34.294Z,96905.75
2017-12-27T21:50:01.776Z,96906.48
2017-12-27T21:52:29.267Z,96903.13
2017-12-27T21:54:56.796Z,96905.63
2017-12-27T21:57:24.992Z,96902.91
2017-12-27T21:59:57.971Z,96902.84
2017-12-27T22:02:25.925Z,96907.00
2017-12-27T22:04:53.384Z,96907.31
2017-12-27T22:07:20.858Z,96911.42
2017-12-27T22:09:48.372Z,96918.60
2017-12-27T22:12:15.798Z,96911.84
2017-12-27T22:14:43.271Z,96912.22
2017-12-27T22:17:10.723Z,96904.56
2017-12-27T22:19:38.179Z,96896.36
2017-12-27T22:22:05.663Z,96896.17
2017-12-27T22:24:33.119Z,96889.84
2017-12-27T22:27:00.548Z,96892.05
2017-12-27T22:29:28.013Z,96881.66
2017-12-27T22:31:55.809Z,96875.27
2017-12-27T22:34:23.273Z,96872.50
2017-12-27T22:36:50.743Z,96869.90
2017-12-27T22:39:18.209Z,96875.80
2017-12-27T22:41:45.767Z,96876.41
2017-12-27T22:44:13.241Z,96887.34
2017-12-27T22:46:40.706Z,96893.44
2017-12-27T22:49:08.173Z,96897.13
2017-12-27T22:51:35.685Z,96898.52
2017-12-27T22:54:03.152Z,96895.42
2017-12-27T22:56:30.677Z,96886.61
2017-12-27T22:58:58.139Z,96886.45
2017-12-27T23:01:25.596Z,96870.88
2017-12-27T23:03:53.157Z,96867.41
2017-12-27T23:06:20.684Z,96861.41
2017-12-27T23:08:48.138Z,96863.66
2017-12-27T23:11:15.591Z,96861.45
2017-12-27T23:13:43.064Z,96858.20
2017-12-27T23:16:10.537Z,96857.41
2017-12-27T23:18:37.991Z,96849.84
2017-12-27T23:21:05.473Z,96850.39
2017-12-27T23:23:32.984Z,96842.74
2017-12-27T23:26:00.440Z,96839.43
2017-12-27T23:28:27.904Z,96823.42
2017-12-27T23:30:55.413Z,96823.69
2017-12-27T23:33:22.883Z,96825.08
2017-12-27T23:35:50.347Z,96823.63
2017-12-27T23:38:18.042Z,96832.14
2017-12-27T23:40:45.518Z,96831.48
2017-12-27T23:43:13.043Z,96835.22
2017-12-27T23:45:40.511Z,96829.80
2017-12-27T23:48:08.032Z,96824.59
2017-12-27T23:50:35.625Z,96825.76
2017-12-27T23:53:03.080Z,96816.33
2017-12-27T23:55:30.552Z,96827.19
2017-12-27T23:57:58.051Z,96823.67
